CYNR

METAR CYNR 211800Z AUTO 21010KT 9SM CLR 20/10 A2982 RMK AO2 SLP098
METAR
LOCATION
CYNR
DATE - TIME
211800Z
WIND
210 TRUE @ 10 KNOTS
VISIBILITY
9SM
RUNWAY VISUAL RANGE
NOT REPORTED
WEATHER
CLOUDINESS
CLR
TEMP / DEWPOINT
20 ºC / 10 ºC
ALTIMETER
29.82 in. Hg
RECENT WEATHER
NOT REPORTED
WIND SHEAR
NOT REPORTED
REMARKS
RMK AO2 SLP098
SEA LEVEL PRESSURE: hPa

CYNR

METAR CYNR 211700Z AUTO 20008KT 9SM CLR 17/09 A2983 RMK AO2 SLP103
METAR
LOCATION
CYNR
DATE - TIME
211700Z
WIND
200 TRUE @ 8 KNOTS
VISIBILITY
9SM
RUNWAY VISUAL RANGE
NOT REPORTED
WEATHER
CLOUDINESS
CLR
TEMP / DEWPOINT
17 ºC / 9 ºC
ALTIMETER
29.83 in. Hg
RECENT WEATHER
NOT REPORTED
WIND SHEAR
NOT REPORTED
REMARKS
RMK AO2 SLP103
SEA LEVEL PRESSURE: hPa

CYNR

METAR CYNR 211600Z AUTO 19008KT 9SM CLR 13/07 A2984 RMK AO2 SLP108
METAR
LOCATION
CYNR
DATE - TIME
211600Z
WIND
190 TRUE @ 8 KNOTS
VISIBILITY
9SM
RUNWAY VISUAL RANGE
NOT REPORTED
WEATHER
CLOUDINESS
CLR
TEMP / DEWPOINT
13 ºC / 7 ºC
ALTIMETER
29.84 in. Hg
RECENT WEATHER
NOT REPORTED
WIND SHEAR
NOT REPORTED
REMARKS
RMK AO2 SLP108
SEA LEVEL PRESSURE: hPa

Your time UTC time
 
 
Weather data provided by AXYS Technologies Inc., www.axystechnologies.com
 
Station History